createdAt,value
2023-03-20T00:01:26.590Z,13.38
2023-03-20T00:03:32.024Z,13.38
2023-03-20T00:05:37.398Z,13.37
2023-03-20T00:07:42.647Z,13.37
2023-03-20T00:09:51.110Z,13.36
2023-03-20T00:11:58.353Z,13.37
2023-03-20T00:14:06.122Z,13.36
2023-03-20T00:16:12.539Z,13.34
2023-03-20T00:18:22.144Z,13.34
2023-03-20T00:20:27.402Z,13.33
2023-03-20T00:22:33.116Z,13.33
2023-03-20T00:24:38.412Z,13.33
2023-03-20T00:26:46.941Z,13.31
2023-03-20T00:28:52.952Z,13.30
2023-03-20T00:30:57.996Z,13.30
2023-03-20T00:33:03.138Z,13.27
2023-03-20T00:35:21.811Z,13.26
2023-03-20T00:37:28.194Z,13.27
2023-03-20T00:39:36.230Z,13.27
2023-03-20T00:41:51.660Z,13.26
2023-03-20T00:44:01.627Z,13.27
2023-03-20T00:46:06.607Z,13.28
2023-03-20T00:48:16.829Z,13.30
2023-03-20T00:50:25.122Z,13.31
2023-03-20T00:52:30.035Z,13.30
2023-03-20T00:54:35.454Z,13.31
2023-03-20T00:56:46.238Z,13.31
2023-03-20T00:58:53.710Z,13.33
2023-03-20T01:00:59.115Z,13.34
2023-03-20T01:03:06.473Z,13.37
2023-03-20T01:05:13.129Z,13.37
2023-03-20T01:07:18.689Z,13.37
2023-03-20T01:09:23.562Z,13.39
2023-03-20T01:11:28.818Z,13.38
2023-03-20T01:13:35.692Z,13.38
2023-03-20T01:15:43.603Z,13.37
2023-03-20T01:17:49.043Z,13.36
2023-03-20T01:19:54.316Z,13.33
2023-03-20T01:21:59.174Z,13.31
2023-03-20T01:24:04.354Z,13.30
2023-03-20T01:26:22.359Z,13.27
2023-03-20T01:28:27.964Z,13.25
2023-03-20T01:30:34.884Z,13.22
2023-03-20T01:32:44.045Z,13.18
2023-03-20T01:34:49.091Z,13.15
2023-03-20T01:36:56.589Z,13.14
2023-03-20T01:39:02.606Z,13.08
2023-03-20T01:41:10.582Z,13.05
2023-03-20T01:43:20.453Z,13.02
2023-03-20T01:45:33.839Z,12.99
2023-03-20T01:47:42.181Z,12.98
2023-03-20T01:50:36.124Z,12.92
2023-03-20T01:52:52.387Z,12.89
2023-03-20T01:54:57.413Z,12.88
2023-03-20T01:57:07.293Z,12.89
2023-03-20T01:59:17.172Z,12.90
2023-03-20T02:01:22.785Z,12.90
2023-03-20T02:03:30.728Z,12.91
2023-03-20T02:06:00.647Z,12.90
2023-03-20T02:08:28.020Z,12.89
2023-03-20T02:10:34.089Z,12.90
2023-03-20T02:12:50.678Z,12.92
2023-03-20T02:15:03.924Z,12.91
2023-03-20T02:17:42.778Z,12.91
2023-03-20T02:20:01.496Z,12.89
2023-03-20T02:22:41.328Z,12.88
2023-03-20T02:25:27.821Z,12.86
2023-03-20T02:27:38.293Z,12.84
2023-03-20T02:30:17.164Z,12.84
2023-03-20T02:32:58.633Z,12.83
2023-03-20T02:35:44.213Z,12.83
2023-03-20T02:38:16.171Z,12.81
2023-03-20T02:40:30.337Z,12.83
2023-03-20T02:42:42.366Z,12.84
2023-03-20T02:44:55.955Z,12.85
2023-03-20T02:47:06.402Z,12.86
2023-03-20T02:49:20.185Z,12.87
2023-03-20T02:51:35.791Z,12.89
2023-03-20T02:53:55.091Z,12.89
2023-03-20T02:56:11.792Z,12.90
2023-03-20T02:58:24.482Z,12.91
2023-03-20T03:00:33.666Z,12.90
2023-03-20T03:02:42.835Z,12.90
2023-03-20T03:04:54.484Z,12.89
2023-03-20T03:07:00.912Z,12.91
2023-03-20T03:09:13.051Z,12.90
2023-03-20T03:11:19.629Z,12.91
2023-03-20T03:13:30.715Z,12.91
2023-03-20T03:15:39.561Z,12.89
2023-03-20T03:17:48.300Z,12.89
2023-03-20T03:20:01.397Z,12.87
2023-03-20T03:22:09.594Z,12.77
2023-03-20T03:24:40.881Z,12.79
2023-03-20T03:26:47.909Z,12.81
2023-03-20T03:28:57.757Z,12.81
2023-03-20T03:31:03.902Z,12.82
2023-03-20T03:33:24.003Z,12.80
2023-03-20T03:35:29.014Z,12.84
2023-03-20T03:37:43.913Z,12.82
2023-03-20T03:39:55.802Z,12.82
2023-03-20T03:42:08.333Z,12.82
2023-03-20T03:44:18.986Z,12.83
2023-03-20T03:46:30.883Z,12.82
2023-03-20T03:48:41.432Z,12.82
2023-03-20T03:50:49.218Z,12.83
2023-03-20T03:52:58.488Z,12.82
2023-03-20T03:55:11.451Z,12.80
2023-03-20T03:57:59.329Z,12.76
2023-03-20T04:00:08.691Z,12.78
2023-03-20T04:02:20.724Z,12.78
2023-03-20T04:04:28.304Z,12.77
2023-03-20T04:06:33.476Z,12.79
2023-03-20T04:08:38.397Z,12.78
2023-03-20T04:10:46.773Z,12.77
2023-03-20T04:12:51.707Z,12.78
2023-03-20T04:14:56.569Z,12.79
2023-03-20T04:17:03.106Z,12.78
2023-03-20T04:19:10.123Z,12.77
2023-03-20T04:21:16.040Z,12.79
2023-03-20T04:23:21.889Z,12.80
2023-03-20T04:25:29.539Z,12.80
2023-03-20T04:27:37.963Z,12.81
2023-03-20T04:29:50.060Z,12.81
2023-03-20T04:32:15.757Z,12.80
2023-03-20T04:34:36.260Z,12.78
2023-03-20T04:36:47.068Z,12.78
2023-03-20T04:38:55.821Z,12.80
2023-03-20T04:41:02.945Z,12.81
2023-03-20T04:43:10.991Z,12.81
2023-03-20T04:45:15.842Z,12.83
2023-03-20T04:47:21.744Z,12.83
2023-03-20T04:49:27.250Z,12.84
2023-03-20T04:51:32.461Z,12.84
2023-03-20T04:53:37.374Z,12.84
2023-03-20T04:55:42.633Z,12.84
2023-03-20T04:57:49.085Z,12.82
2023-03-20T04:59:56.738Z,12.80
2023-03-20T05:02:01.798Z,12.80
2023-03-20T05:04:06.758Z,12.79
2023-03-20T05:06:12.706Z,12.78
2023-03-20T05:08:20.725Z,12.78
2023-03-20T05:10:25.979Z,12.78
2023-03-20T05:12:35.992Z,12.78
2023-03-20T05:15:03.726Z,12.78
2023-03-20T05:17:27.993Z,12.78
2023-03-20T05:19:50.673Z,12.79
2023-03-20T05:22:15.705Z,12.80
2023-03-20T05:24:47.884Z,12.80
2023-03-20T05:27:11.015Z,12.80
2023-03-20T05:29:27.990Z,12.80
2023-03-20T05:31:58.681Z,12.78
2023-03-20T05:34:18.355Z,12.78
2023-03-20T05:36:38.190Z,12.75
2023-03-20T05:39:12.266Z,12.72
2023-03-20T05:41:45.753Z,12.67
2023-03-20T05:43:53.345Z,12.67
2023-03-20T05:46:16.588Z,12.64
2023-03-20T05:48:54.778Z,12.61
2023-03-20T05:51:10.526Z,12.63
2023-03-20T05:53:38.560Z,12.66
2023-03-20T05:56:10.941Z,12.68
2023-03-20T05:58:16.203Z,12.69
2023-03-20T06:00:41.348Z,12.70
2023-03-20T06:03:18.560Z,12.69
2023-03-20T06:05:41.600Z,12.69
2023-03-20T06:07:47.271Z,12.71
2023-03-20T06:09:53.514Z,12.70
2023-03-20T06:11:58.263Z,12.70
2023-03-20T06:14:04.266Z,12.71
2023-03-20T06:16:16.298Z,12.70
2023-03-20T06:18:21.404Z,12.71
2023-03-20T06:20:27.354Z,12.69
2023-03-20T06:22:35.763Z,12.68
2023-03-20T06:24:41.188Z,12.68
2023-03-20T06:26:48.898Z,12.68
2023-03-20T06:28:54.006Z,12.69
2023-03-20T06:30:58.866Z,12.69
2023-03-20T06:33:03.848Z,12.71
2023-03-20T06:35:21.174Z,12.70
2023-03-20T06:37:28.050Z,12.70
2023-03-20T06:39:42.973Z,12.68
2023-03-20T06:41:51.195Z,12.67
2023-03-20T06:44:00.634Z,12.67
2023-03-20T06:46:17.945Z,12.68
2023-03-20T06:48:23.351Z,12.69
2023-03-20T06:50:28.964Z,12.70
2023-03-20T06:52:35.732Z,12.69
2023-03-20T06:55:07.698Z,12.66
2023-03-20T06:57:15.221Z,12.68
2023-03-20T06:59:21.489Z,12.67
2023-03-20T07:01:27.546Z,12.66
2023-03-20T07:03:32.728Z,12.68
2023-03-20T07:05:38.812Z,12.70
2023-03-20T07:07:46.165Z,12.72
2023-03-20T07:09:50.889Z,12.73
2023-03-20T07:11:58.465Z,12.73
2023-03-20T07:14:04.824Z,12.75
2023-03-20T07:16:21.294Z,12.77
2023-03-20T07:18:26.479Z,12.78
2023-03-20T07:20:32.075Z,12.79
2023-03-20T07:22:37.480Z,12.77
2023-03-20T07:24:55.827Z,12.79
2023-03-20T07:27:05.663Z,12.81
2023-03-20T07:29:12.108Z,12.84
2023-03-20T07:31:23.564Z,12.84
2023-03-20T07:33:34.224Z,12.84
2023-03-20T07:35:40.025Z,12.88
2023-03-20T07:37:45.946Z,12.87
2023-03-20T07:39:51.639Z,12.85
2023-03-20T07:42:14.142Z,12.84
2023-03-20T07:44:29.422Z,12.86
2023-03-20T07:46:34.203Z,12.87
2023-03-20T07:48:39.839Z,12.90
2023-03-20T07:50:44.707Z,12.89
2023-03-20T07:52:51.385Z,12.90
2023-03-20T07:54:59.037Z,12.89
2023-03-20T07:57:05.777Z,12.92
2023-03-20T07:59:13.336Z,12.96
2023-03-20T08:01:18.804Z,13.01
2023-03-20T08:03:23.728Z,13.05
2023-03-20T08:05:28.865Z,13.08
2023-03-20T08:07:33.768Z,13.10
2023-03-20T08:09:39.206Z,13.11
2023-03-20T08:11:44.218Z,13.15
2023-03-20T08:13:50.010Z,13.20
2023-03-20T08:15:57.501Z,13.21
2023-03-20T08:18:02.353Z,13.24
2023-03-20T08:20:08.251Z,13.27
2023-03-20T08:22:13.607Z,13.29
2023-03-20T08:24:18.782Z,13.33
2023-03-20T08:26:24.624Z,13.35
2023-03-20T08:28:46.279Z,13.36
2023-03-20T08:30:53.022Z,13.41
2023-03-20T08:33:01.150Z,13.48
2023-03-20T08:35:06.839Z,13.52
2023-03-20T08:37:12.484Z,13.58
2023-03-20T08:39:17.251Z,13.62
2023-03-20T08:41:22.094Z,13.67
2023-03-20T08:43:27.576Z,13.70
2023-03-20T08:45:32.450Z,13.75
2023-03-20T08:47:39.594Z,13.80
2023-03-20T08:49:48.280Z,13.86
2023-03-20T08:51:53.405Z,14.02
2023-03-20T08:53:58.579Z,14.24
2023-03-20T08:56:03.892Z,14.52
2023-03-20T08:58:08.824Z,14.82
2023-03-20T09:00:19.310Z,15.07
2023-03-20T09:02:24.549Z,15.30
2023-03-20T09:04:29.387Z,15.51
2023-03-20T09:06:39.222Z,15.66
2023-03-20T09:08:43.967Z,15.80
2023-03-20T09:10:52.877Z,15.85
2023-03-20T09:12:58.368Z,15.92
2023-03-20T09:15:03.204Z,16.03
2023-03-20T09:17:08.050Z,16.18
2023-03-20T09:19:12.780Z,16.31
2023-03-20T09:21:17.641Z,16.44
2023-03-20T09:23:25.079Z,16.54
2023-03-20T09:25:30.060Z,16.63
2023-03-20T09:27:35.333Z,16.62
2023-03-20T09:29:40.118Z,16.57
2023-03-20T09:31:44.750Z,16.54
2023-03-20T09:33:49.786Z,16.52
2023-03-20T09:35:54.521Z,16.50
2023-03-20T09:37:59.533Z,16.60
2023-03-20T09:40:07.989Z,16.66
2023-03-20T09:42:26.206Z,16.68
2023-03-20T09:44:48.608Z,16.71
2023-03-20T09:47:19.344Z,16.71
2023-03-20T09:49:36.062Z,16.65
2023-03-20T09:51:47.569Z,16.62
2023-03-20T09:53:59.898Z,16.56
2023-03-20T09:56:16.224Z,16.51
2023-03-20T09:58:26.210Z,16.43
2023-03-20T10:00:34.918Z,16.38
2023-03-20T10:02:47.051Z,16.28
2023-03-20T10:04:54.506Z,16.22
2023-03-20T10:06:59.846Z,16.17
2023-03-20T10:09:06.225Z,16.12
2023-03-20T10:11:41.853Z,16.01
2023-03-20T10:13:58.812Z,15.89
2023-03-20T10:16:09.717Z,15.78
2023-03-20T10:18:21.126Z,15.70
2023-03-20T10:20:31.661Z,15.62
2023-03-20T10:22:39.353Z,15.57
2023-03-20T10:24:50.674Z,15.50
2023-03-20T10:27:01.092Z,15.46
2023-03-20T10:29:10.772Z,15.42
2023-03-20T10:31:35.856Z,15.39
2023-03-20T10:33:56.113Z,15.36
2023-03-20T10:36:12.849Z,15.32
2023-03-20T10:38:28.568Z,15.30
2023-03-20T10:40:37.649Z,15.29
2023-03-20T10:42:50.698Z,15.27
2023-03-20T10:45:00.962Z,15.26
2023-03-20T10:47:12.186Z,15.24
2023-03-20T10:49:22.424Z,15.21
2023-03-20T10:51:37.171Z,15.18
2023-03-20T10:53:50.170Z,15.15
2023-03-20T10:55:59.543Z,15.13
2023-03-20T10:58:17.781Z,15.13
2023-03-20T11:00:25.660Z,15.14
2023-03-20T11:02:33.304Z,15.19
2023-03-20T11:04:38.557Z,15.27
2023-03-20T11:06:51.794Z,15.33
2023-03-20T11:08:58.428Z,15.40
2023-03-20T11:11:04.966Z,15.42
2023-03-20T11:13:29.713Z,15.42
2023-03-20T11:15:37.983Z,15.47
2023-03-20T11:17:43.334Z,15.51
2023-03-20T11:19:48.672Z,15.61
2023-03-20T11:21:56.515Z,15.70
2023-03-20T11:24:03.737Z,15.78
2023-03-20T11:26:11.168Z,15.83
2023-03-20T11:28:33.216Z,15.84
2023-03-20T11:31:01.439Z,15.83
2023-03-20T11:33:08.911Z,15.84
2023-03-20T11:35:22.576Z,15.84
2023-03-20T11:37:29.747Z,15.82
2023-03-20T11:39:37.713Z,15.86
2023-03-20T11:41:49.571Z,15.95
2023-03-20T11:43:57.389Z,16.09
2023-03-20T11:46:04.706Z,16.25
2023-03-20T11:48:17.823Z,16.43
2023-03-20T11:50:29.727Z,16.49
2023-03-20T11:52:37.219Z,16.67
2023-03-20T11:54:48.865Z,16.83
2023-03-20T11:56:58.872Z,16.98
2023-03-20T11:59:18.596Z,17.07
2023-03-20T12:01:24.817Z,17.11
2023-03-20T12:03:47.021Z,17.09
2023-03-20T12:05:51.918Z,17.06
2023-03-20T12:08:00.009Z,16.99
2023-03-20T12:10:07.055Z,16.94
2023-03-20T12:12:19.330Z,16.91
2023-03-20T12:14:33.941Z,16.88
2023-03-20T12:16:40.026Z,16.87
2023-03-20T12:18:49.092Z,16.81
2023-03-20T12:21:01.297Z,16.78
2023-03-20T12:23:15.155Z,16.74
2023-03-20T12:25:25.912Z,16.72
2023-03-20T12:27:35.537Z,16.70
2023-03-20T12:29:49.645Z,16.68
2023-03-20T12:31:59.611Z,16.66
2023-03-20T12:34:11.850Z,16.62
2023-03-20T12:36:19.423Z,16.58
2023-03-20T12:38:30.158Z,16.54
2023-03-20T12:40:45.793Z,16.51
2023-03-20T12:43:03.200Z,16.49
2023-03-20T12:45:15.621Z,16.46
2023-03-20T12:47:39.870Z,16.40
2023-03-20T12:49:52.054Z,16.37
2023-03-20T12:52:06.194Z,16.34
2023-03-20T12:54:25.637Z,16.29
2023-03-20T12:56:40.695Z,16.22
2023-03-20T12:58:50.135Z,16.18
2023-03-20T13:01:05.902Z,16.15
2023-03-20T13:03:31.307Z,16.13
2023-03-20T13:05:45.863Z,16.13
2023-03-20T13:08:06.506Z,16.12
2023-03-20T13:10:22.613Z,16.13
2023-03-20T13:12:37.763Z,16.09
2023-03-20T13:14:51.543Z,16.08
2023-03-20T13:17:07.215Z,16.05
2023-03-20T13:19:20.538Z,16.05
2023-03-20T13:21:28.564Z,15.96
2023-03-20T13:23:41.281Z,15.97
2023-03-20T13:26:17.511Z,15.96
2023-03-20T13:28:31.018Z,15.98
2023-03-20T13:30:44.365Z,15.98
2023-03-20T13:32:58.465Z,15.98
2023-03-20T13:35:31.041Z,15.95
2023-03-20T13:37:38.665Z,15.94
2023-03-20T13:39:48.763Z,15.92
2023-03-20T13:41:54.838Z,15.90
2023-03-20T13:44:03.679Z,15.90
2023-03-20T13:46:12.040Z,15.90
2023-03-20T13:48:31.563Z,15.89
2023-03-20T13:50:52.184Z,15.87
2023-03-20T13:53:06.851Z,15.85
2023-03-20T13:55:26.587Z,15.82
2023-03-20T13:57:52.812Z,15.79
2023-03-20T14:00:05.369Z,15.76
2023-03-20T14:02:31.202Z,15.70
2023-03-20T14:04:39.653Z,15.69
2023-03-20T14:06:55.832Z,15.69
2023-03-20T14:09:02.783Z,15.71
2023-03-20T14:11:35.859Z,15.71
2023-03-20T14:13:41.335Z,15.75
2023-03-20T14:15:56.635Z,15.77
2023-03-20T14:18:06.420Z,15.82
2023-03-20T14:20:31.261Z,15.81
2023-03-20T14:22:38.963Z,15.84
2023-03-20T14:24:53.190Z,15.85
2023-03-20T14:27:00.813Z,15.88
2023-03-20T14:29:25.324Z,15.91
2023-03-20T14:31:37.815Z,15.93
2023-03-20T14:33:46.342Z,15.94
2023-03-20T14:36:14.848Z,15.93
2023-03-20T14:38:28.384Z,15.95
2023-03-20T14:40:39.426Z,15.96
2023-03-20T14:42:53.829Z,15.96
2023-03-20T14:45:18.528Z,15.98
2023-03-20T14:47:37.997Z,16.01
2023-03-20T14:49:55.464Z,16.03
2023-03-20T14:52:15.346Z,16.07
2023-03-20T14:54:28.939Z,16.09
2023-03-20T14:56:36.743Z,16.14
2023-03-20T14:59:04.243Z,16.14
2023-03-20T15:01:12.080Z,16.17
2023-03-20T15:03:19.458Z,16.20
2023-03-20T15:05:29.555Z,16.23
2023-03-20T15:07:41.777Z,16.25
2023-03-20T15:09:49.543Z,16.27
2023-03-20T15:11:59.753Z,16.28
2023-03-20T15:14:07.172Z,16.28
2023-03-20T15:16:14.823Z,16.27
2023-03-20T15:18:19.534Z,16.28
2023-03-20T15:20:29.543Z,16.28
2023-03-20T15:22:37.135Z,16.26
2023-03-20T15:24:41.872Z,16.26
2023-03-20T15:26:46.741Z,16.25
2023-03-20T15:28:52.248Z,16.25
2023-03-20T15:31:01.780Z,16.21
2023-03-20T15:33:07.356Z,16.20
2023-03-20T15:35:16.100Z,16.16
2023-03-20T15:37:24.730Z,16.16
2023-03-20T15:39:46.074Z,16.16
2023-03-20T15:41:55.791Z,16.15
2023-03-20T15:44:07.836Z,16.15
2023-03-20T15:46:18.330Z,16.16
2023-03-20T15:48:26.363Z,16.16
2023-03-20T15:50:34.724Z,16.16
2023-03-20T15:52:45.008Z,16.18
2023-03-20T15:54:52.786Z,16.20
2023-03-20T15:57:00.829Z,16.22
2023-03-20T15:59:06.573Z,16.22
2023-03-20T16:01:12.266Z,16.22
2023-03-20T16:03:19.782Z,16.22
2023-03-20T16:05:27.915Z,16.19
2023-03-20T16:07:34.578Z,16.20
2023-03-20T16:09:46.354Z,16.19
2023-03-20T16:12:00.462Z,16.19
2023-03-20T16:14:05.562Z,16.19
2023-03-20T16:16:15.769Z,16.18
2023-03-20T16:18:22.057Z,16.16
2023-03-20T16:20:30.008Z,16.13
2023-03-20T16:22:36.794Z,16.11
2023-03-20T16:24:43.220Z,16.07
2023-03-20T16:26:55.858Z,16.03
2023-03-20T16:29:03.369Z,15.99
2023-03-20T16:31:14.042Z,15.96
2023-03-20T16:33:20.933Z,15.96
2023-03-20T16:35:30.645Z,15.92
2023-03-20T16:37:41.089Z,15.90
2023-03-20T16:39:46.254Z,15.90
2023-03-20T16:42:06.007Z,15.84
2023-03-20T16:44:15.506Z,15.81
2023-03-20T16:46:24.110Z,15.78
2023-03-20T16:48:32.698Z,15.78
2023-03-20T16:50:39.779Z,15.73
2023-03-20T16:52:49.813Z,15.70
2023-03-20T16:54:54.792Z,15.68
2023-03-20T16:57:04.172Z,15.64
2023-03-20T16:59:11.288Z,15.62
2023-03-20T17:01:21.683Z,15.58
2023-03-20T17:03:30.302Z,15.55
2023-03-20T17:05:52.317Z,15.50
2023-03-20T17:08:06.891Z,15.49
2023-03-20T17:10:24.618Z,15.43
2023-03-20T17:12:37.104Z,15.40
2023-03-20T17:14:45.111Z,15.38
2023-03-20T17:16:50.732Z,15.35
2023-03-20T17:19:02.939Z,15.31
2023-03-20T17:21:08.250Z,15.29
2023-03-20T17:23:16.916Z,15.27
2023-03-20T17:25:22.883Z,15.25
2023-03-20T17:27:30.057Z,15.22
2023-03-20T17:29:37.473Z,15.17
2023-03-20T17:31:43.126Z,15.16
2023-03-20T17:33:48.498Z,15.14
2023-03-20T17:35:54.266Z,15.11
2023-03-20T17:37:59.098Z,15.10
2023-03-20T17:40:04.117Z,15.07
2023-03-20T17:42:19.414Z,15.03
2023-03-20T17:44:24.979Z,14.98
2023-03-20T17:46:40.261Z,14.94
2023-03-20T17:48:59.066Z,14.87
2023-03-20T17:51:05.216Z,14.85
2023-03-20T17:53:16.577Z,14.81
2023-03-20T17:55:21.378Z,14.79
2023-03-20T17:57:34.084Z,14.74
2023-03-20T17:59:38.989Z,14.71
2023-03-20T18:01:46.720Z,14.68
2023-03-20T18:03:51.524Z,14.68
2023-03-20T18:05:56.659Z,14.65
2023-03-20T18:08:01.706Z,14.62
2023-03-20T18:10:07.070Z,14.59
2023-03-20T18:12:15.539Z,14.55
2023-03-20T18:14:20.459Z,14.50
2023-03-20T18:16:27.303Z,14.46
2023-03-20T18:18:34.755Z,14.39
2023-03-20T18:20:41.402Z,14.35
2023-03-20T18:22:46.299Z,14.30
2023-03-20T18:24:51.115Z,14.27
2023-03-20T18:26:56.955Z,14.22
2023-03-20T18:29:02.241Z,14.17
2023-03-20T18:31:07.060Z,14.11
2023-03-20T18:33:12.070Z,14.08
2023-03-20T18:35:19.621Z,14.04
2023-03-20T18:37:24.536Z,14.00
2023-03-20T18:39:29.464Z,13.95
2023-03-20T18:41:34.269Z,13.91
2023-03-20T18:43:39.062Z,13.86
2023-03-20T18:45:44.483Z,13.81
2023-03-20T18:47:49.541Z,13.75
2023-03-20T18:49:54.328Z,13.71
2023-03-20T18:52:03.954Z,13.65
2023-03-20T18:54:08.764Z,13.59
2023-03-20T18:56:16.729Z,13.54
2023-03-20T18:58:23.989Z,13.48
2023-03-20T19:00:32.461Z,13.44
2023-03-20T19:02:37.293Z,13.42
2023-03-20T19:04:42.084Z,13.37
2023-03-20T19:06:48.710Z,13.34
2023-03-20T19:08:56.139Z,13.28
2023-03-20T19:11:01.360Z,13.26
2023-03-20T19:13:07.664Z,13.23
2023-03-20T19:15:13.514Z,13.21
2023-03-20T19:17:18.689Z,13.20
2023-03-20T19:19:23.471Z,13.18
2023-03-20T19:21:28.899Z,13.17
2023-03-20T19:23:34.600Z,13.15
2023-03-20T19:25:43.537Z,13.10
2023-03-20T19:27:48.370Z,13.08
2023-03-20T19:29:57.207Z,13.07
2023-03-20T19:32:02.302Z,13.02
2023-03-20T19:34:07.741Z,12.99
2023-03-20T19:36:25.890Z,12.96
2023-03-20T19:38:30.664Z,12.95
2023-03-20T19:40:43.080Z,12.92
2023-03-20T19:43:02.154Z,12.88
2023-03-20T19:45:10.026Z,12.86
2023-03-20T19:47:14.703Z,12.83
2023-03-20T19:49:25.019Z,12.80
2023-03-20T19:51:34.883Z,12.74
2023-03-20T19:53:39.906Z,12.71
2023-03-20T19:55:44.841Z,12.68
2023-03-20T19:57:54.867Z,12.64
2023-03-20T20:00:39.812Z,12.60
2023-03-20T20:02:24.847Z,12.55
2023-03-20T20:04:29.631Z,12.51
2023-03-20T20:06:34.583Z,12.48
2023-03-20T20:08:49.411Z,12.43
2023-03-20T20:10:56.535Z,12.34
2023-03-20T20:13:03.784Z,12.27
2023-03-20T20:15:10.465Z,12.21
2023-03-20T20:17:15.432Z,12.14
2023-03-20T20:19:20.255Z,12.11
2023-03-20T20:23:50.449Z,12.01
2023-03-20T20:25:58.059Z,11.98
2023-03-20T20:28:05.777Z,11.95
2023-03-20T20:30:13.804Z,11.88
2023-03-20T20:32:19.023Z,11.86
2023-03-20T20:37:36.721Z,11.77
2023-03-20T20:39:13.508Z,11.75
2023-03-20T20:41:18.315Z,11.73
2023-03-20T20:43:56.723Z,11.69
2023-03-20T20:45:53.388Z,11.64
2023-03-20T20:47:58.584Z,11.64
2023-03-20T20:50:04.231Z,11.62
2023-03-20T20:52:09.020Z,11.63
2023-03-20T20:54:14.456Z,11.59
2023-03-20T20:56:19.313Z,11.58
2023-03-20T20:58:27.657Z,11.57
2023-03-20T21:00:48.559Z,11.57
2023-03-20T21:02:54.974Z,11.53
2023-03-20T21:05:00.316Z,11.52
2023-03-20T21:07:10.808Z,11.48
2023-03-20T21:09:16.480Z,11.47
2023-03-20T21:11:21.526Z,11.45
2023-03-20T21:13:28.976Z,11.42
2023-03-20T21:15:33.839Z,11.42
2023-03-20T21:17:47.246Z,11.39
2023-03-20T21:20:02.958Z,11.34
2023-03-20T21:22:09.580Z,11.32
2023-03-20T21:24:31.157Z,11.30
2023-03-20T21:26:37.311Z,11.27
2023-03-20T21:28:44.659Z,11.28
2023-03-20T21:33:01.213Z,11.28
2023-03-20T21:35:09.470Z,11.27
2023-03-20T21:39:43.063Z,11.20
2023-03-20T21:41:47.883Z,11.21
2023-03-20T21:43:56.139Z,11.20
2023-03-20T21:51:20.661Z,11.21
2023-03-20T22:03:01.564Z,11.15
2023-03-20T22:13:14.068Z,11.11
2023-03-20T22:17:56.019Z,11.10
2023-03-20T22:23:21.043Z,11.05
2023-03-20T22:25:16.648Z,11.02
2023-03-20T22:30:12.390Z,10.96
2023-03-20T22:32:35.041Z,10.94
2023-03-20T22:39:54.501Z,10.79
2023-03-20T22:42:22.479Z,10.77
2023-03-20T22:44:50.061Z,10.76
2023-03-20T22:46:44.759Z,10.74
2023-03-20T22:48:47.153Z,10.73
2023-03-20T22:50:54.519Z,10.72
2023-03-20T22:52:59.547Z,10.73
2023-03-20T22:55:04.186Z,10.73
2023-03-20T22:57:09.172Z,10.72
2023-03-20T22:59:13.856Z,10.71
2023-03-20T23:01:18.744Z,10.72
2023-03-20T23:03:39.942Z,10.71
2023-03-20T23:05:46.066Z,10.68
2023-03-20T23:07:53.333Z,10.67
2023-03-20T23:09:58.296Z,10.64
2023-03-20T23:12:02.998Z,10.63
2023-03-20T23:14:18.224Z,10.63
2023-03-20T23:16:25.190Z,10.62
2023-03-20T23:18:29.931Z,10.61
2023-03-20T23:20:34.706Z,10.59
2023-03-20T23:22:39.595Z,10.58
2023-03-20T23:24:47.202Z,10.57
2023-03-20T23:26:52.601Z,10.57
2023-03-20T23:28:57.670Z,10.56
2023-03-20T23:31:10.480Z,10.55
2023-03-20T23:33:15.686Z,10.54
2023-03-20T23:35:21.252Z,10.55
2023-03-20T23:37:26.728Z,10.53
2023-03-20T23:39:32.272Z,10.53
2023-03-20T23:42:06.213Z,10.54
2023-03-20T23:44:05.750Z,10.55
2023-03-20T23:46:11.524Z,10.56
2023-03-20T23:48:16.528Z,10.56
2023-03-20T23:50:45.864Z,10.55
2023-03-20T23:55:14.567Z,10.54
2023-03-20T23:57:21.950Z,10.53
2023-03-20T23:59:26.634Z,10.55
